createdAt,value
2022-11-28T00:01:25.006Z,21.59
2022-11-28T00:03:51.745Z,21.60
2022-11-28T00:06:18.741Z,21.50
2022-11-28T00:08:45.901Z,21.59
2022-11-28T00:11:14.984Z,21.48
2022-11-28T00:13:42.426Z,21.57
2022-11-28T00:16:13.137Z,21.57
2022-11-28T00:18:39.845Z,21.57
2022-11-28T00:21:09.692Z,21.57
2022-11-28T00:23:36.447Z,21.55
2022-11-28T00:26:07.209Z,21.55
2022-11-28T00:28:34.118Z,21.57
2022-11-28T00:31:00.991Z,21.56
2022-11-28T00:33:27.928Z,21.55
2022-11-28T00:36:02.048Z,21.54
2022-11-28T00:38:29.436Z,21.54
2022-11-28T00:41:08.754Z,21.54
2022-11-28T00:45:56.543Z,21.53
2022-11-28T00:48:24.055Z,21.53
2022-11-28T00:50:51.242Z,21.53
2022-11-28T00:53:17.885Z,21.53
2022-11-28T00:55:44.706Z,21.52
2022-11-28T00:58:11.607Z,21.50
2022-11-28T01:00:38.787Z,21.52
2022-11-28T01:03:05.555Z,21.23
2022-11-28T01:05:32.102Z,21.51
2022-11-28T01:07:58.756Z,21.51
2022-11-28T01:10:25.566Z,21.50
2022-11-28T01:12:52.127Z,21.51
2022-11-28T01:15:18.627Z,21.50
2022-11-28T01:17:45.322Z,21.50
2022-11-28T01:20:12.428Z,21.50
2022-11-28T01:22:39.095Z,21.49
2022-11-28T01:25:05.962Z,21.50
2022-11-28T01:27:32.552Z,21.41
2022-11-28T01:32:30.225Z,21.48
2022-11-28T01:34:57.865Z,21.47
2022-11-28T01:37:24.358Z,21.47
2022-11-28T01:39:51.026Z,21.47
2022-11-28T01:42:20.093Z,21.46
2022-11-28T01:44:49.627Z,21.46
2022-11-28T01:47:23.224Z,21.46
2022-11-28T01:49:51.923Z,21.45
2022-11-28T01:52:20.231Z,21.45
2022-11-28T01:54:50.815Z,21.44
2022-11-28T01:57:21.698Z,21.44
2022-11-28T02:00:02.041Z,21.43
2022-11-28T02:02:47.699Z,21.43
2022-11-28T02:05:15.888Z,21.40
2022-11-28T02:07:44.037Z,21.42
2022-11-28T02:10:15.117Z,21.41
2022-11-28T02:13:00.577Z,21.40
2022-11-28T02:15:51.311Z,21.40
2022-11-28T02:18:35.294Z,21.40
2022-11-28T02:21:11.183Z,21.39
2022-11-28T02:23:59.602Z,21.38
2022-11-28T02:26:44.638Z,21.37
2022-11-28T02:29:48.231Z,21.36
2022-11-28T02:32:23.623Z,21.36
2022-11-28T02:35:14.894Z,21.36
2022-11-28T02:37:50.643Z,21.34
2022-11-28T02:40:26.615Z,21.34
2022-11-28T02:43:23.731Z,21.34
2022-11-28T02:45:57.368Z,21.33
2022-11-28T02:48:55.239Z,21.33
2022-11-28T02:51:41.519Z,21.32
2022-11-28T02:54:12.834Z,21.32
2022-11-28T02:56:39.456Z,21.32
2022-11-28T02:59:45.778Z,21.31
2022-11-28T03:02:29.049Z,21.31
2022-11-28T03:05:12.206Z,21.31
2022-11-28T03:08:00.107Z,21.30
2022-11-28T03:10:30.476Z,21.29
2022-11-28T03:13:06.043Z,21.29
2022-11-28T03:15:44.350Z,21.29
2022-11-28T03:18:28.607Z,21.18
2022-11-28T03:21:26.126Z,21.27
2022-11-28T03:24:17.758Z,21.27
2022-11-28T03:27:00.070Z,21.20
2022-11-28T03:29:36.872Z,21.24
2022-11-28T03:32:09.679Z,21.26
2022-11-28T03:34:41.022Z,21.26
2022-11-28T03:37:22.561Z,21.24
2022-11-28T03:39:57.731Z,21.25
2022-11-28T03:42:28.320Z,21.25
2022-11-28T03:45:14.031Z,21.24
2022-11-28T03:47:47.629Z,21.23
2022-11-28T03:50:40.170Z,21.23
2022-11-28T03:53:13.676Z,21.17
2022-11-28T03:55:56.858Z,21.21
2022-11-28T03:58:32.422Z,21.20
2022-11-28T04:01:33.492Z,21.20
2022-11-28T04:06:26.507Z,21.18
2022-11-28T04:09:03.793Z,21.19
2022-11-28T04:11:55.582Z,21.18
2022-11-28T04:14:30.407Z,21.17
2022-11-28T04:17:10.626Z,21.17
2022-11-28T04:19:45.187Z,21.16
2022-11-28T04:22:32.796Z,21.16
2022-11-28T04:25:07.787Z,21.12
2022-11-28T04:27:57.695Z,21.15
2022-11-28T04:30:24.374Z,21.15
2022-11-28T04:32:56.187Z,21.14
2022-11-28T04:35:28.813Z,21.01
2022-11-28T04:37:58.060Z,21.10
2022-11-28T04:40:27.428Z,21.03
2022-11-28T04:42:59.002Z,21.13
2022-11-28T04:45:39.887Z,21.12
2022-11-28T04:48:07.379Z,21.11
2022-11-28T04:51:07.416Z,21.12
2022-11-28T04:53:44.062Z,21.10
2022-11-28T04:56:20.255Z,21.05
2022-11-28T04:58:49.489Z,21.09
2022-11-28T05:01:24.243Z,21.09
2022-11-28T05:03:51.341Z,21.07
2022-11-28T05:06:28.397Z,21.08
2022-11-28T05:08:55.657Z,21.07
2022-11-28T05:11:22.177Z,21.07
2022-11-28T05:13:48.747Z,21.07
2022-11-28T05:16:16.431Z,21.04
2022-11-28T05:18:43.957Z,21.06
2022-11-28T05:21:11.274Z,21.07
2022-11-28T05:23:39.726Z,21.06
2022-11-28T05:26:07.790Z,21.06
2022-11-28T05:28:34.520Z,21.05
2022-11-28T05:31:02.614Z,21.04
2022-11-28T05:33:30.519Z,21.03
2022-11-28T05:36:12.617Z,21.02
2022-11-28T05:38:40.822Z,21.02
2022-11-28T05:41:07.427Z,21.01
2022-11-28T05:43:34.258Z,21.01
2022-11-28T05:46:00.798Z,21.00
2022-11-28T05:48:27.401Z,20.89
2022-11-28T05:50:53.987Z,20.99
2022-11-28T05:53:20.668Z,20.92
2022-11-28T05:55:47.498Z,20.98
2022-11-28T05:58:14.545Z,20.97
2022-11-28T06:00:41.036Z,20.95
2022-11-28T06:03:07.793Z,20.97
2022-11-28T06:05:42.909Z,20.88
2022-11-28T06:08:13.283Z,20.95
2022-11-28T06:10:40.527Z,20.94
2022-11-28T06:13:07.115Z,20.88
2022-11-28T06:15:37.846Z,20.93
2022-11-28T06:18:05.392Z,20.92
2022-11-28T06:20:31.908Z,20.89
2022-11-28T06:22:58.458Z,20.91
2022-11-28T06:25:25.051Z,20.90
2022-11-28T06:27:51.585Z,20.91
2022-11-28T06:30:21.018Z,20.90
2022-11-28T06:32:47.675Z,20.90
2022-11-28T06:35:14.330Z,20.89
2022-11-28T06:37:40.882Z,20.80
2022-11-28T06:40:07.965Z,20.84
2022-11-28T06:42:36.319Z,20.86
2022-11-28T06:45:04.507Z,20.87
2022-11-28T06:47:31.403Z,20.87
2022-11-28T06:49:58.055Z,20.84
2022-11-28T06:52:24.655Z,20.86
2022-11-28T06:54:51.235Z,20.84
2022-11-28T06:57:17.819Z,20.85
2022-11-28T06:59:44.674Z,20.84
2022-11-28T07:02:11.826Z,20.84
2022-11-28T07:04:38.551Z,20.83
2022-11-28T07:07:05.155Z,20.84
2022-11-28T07:09:31.695Z,20.84
2022-11-28T07:11:58.331Z,20.85
2022-11-28T07:14:24.895Z,20.86
2022-11-28T07:16:51.584Z,20.86
2022-11-28T07:19:22.726Z,20.87
2022-11-28T07:21:50.433Z,20.80
2022-11-28T07:24:18.421Z,20.89
2022-11-28T07:26:46.787Z,20.89
2022-11-28T07:29:18.141Z,20.88
2022-11-28T07:31:45.130Z,20.90
2022-11-28T07:34:12.167Z,20.90
2022-11-28T07:36:38.834Z,20.81
2022-11-28T07:39:08.689Z,20.91
2022-11-28T07:41:35.611Z,20.82
2022-11-28T07:44:03.989Z,20.91
2022-11-28T07:46:32.158Z,20.89
2022-11-28T07:48:59.157Z,20.91
2022-11-28T07:51:32.431Z,20.92
2022-11-28T07:53:59.935Z,20.92
2022-11-28T07:56:39.349Z,20.93
2022-11-28T07:59:11.998Z,20.93
2022-11-28T08:01:39.049Z,20.93
2022-11-28T08:04:08.438Z,20.92
2022-11-28T08:06:41.025Z,20.91
2022-11-28T08:09:08.599Z,20.92
2022-11-28T08:11:35.798Z,20.92
2022-11-28T08:14:03.647Z,20.88
2022-11-28T08:16:32.425Z,20.79
2022-11-28T08:19:02.359Z,20.92
2022-11-28T08:21:33.278Z,20.92
2022-11-28T08:24:01.736Z,20.91
2022-11-28T08:26:31.045Z,20.90
2022-11-28T08:28:58.986Z,20.92
2022-11-28T08:31:27.870Z,20.91
2022-11-28T08:33:56.386Z,20.91
2022-11-28T08:36:22.922Z,20.91
2022-11-28T08:39:03.402Z,20.87
2022-11-28T08:41:36.922Z,20.87
2022-11-28T08:44:03.543Z,20.92
2022-11-28T08:46:30.703Z,20.92
2022-11-28T08:48:57.558Z,20.91
2022-11-28T08:51:25.206Z,20.92
2022-11-28T08:53:57.900Z,20.91
2022-11-28T08:56:26.342Z,20.90
2022-11-28T08:58:52.825Z,20.93
2022-11-28T09:01:28.544Z,20.95
2022-11-28T09:03:56.009Z,20.94
2022-11-28T09:06:23.334Z,20.94
2022-11-28T09:08:50.646Z,20.94
2022-11-28T09:11:19.431Z,20.89
2022-11-28T09:13:46.835Z,20.94
2022-11-28T09:16:14.574Z,20.96
2022-11-28T09:18:41.460Z,20.96
2022-11-28T09:21:10.150Z,20.87
2022-11-28T09:23:39.491Z,20.95
2022-11-28T09:26:10.623Z,20.92
2022-11-28T09:28:37.657Z,20.99
2022-11-28T09:31:05.836Z,21.01
2022-11-28T09:33:33.231Z,21.02
2022-11-28T09:36:07.900Z,20.82
2022-11-28T09:38:34.592Z,20.93
2022-11-28T09:41:02.559Z,21.03
2022-11-28T09:43:44.084Z,20.99
2022-11-28T09:46:20.118Z,21.05
2022-11-28T09:48:51.164Z,21.07
2022-11-28T09:51:37.021Z,21.09
2022-11-28T09:54:17.614Z,21.10
2022-11-28T09:56:49.194Z,21.12
2022-11-28T09:59:27.428Z,21.14
2022-11-28T10:02:00.079Z,21.15
2022-11-28T10:04:51.562Z,21.17
2022-11-28T10:07:42.785Z,21.17
2022-11-28T10:10:19.691Z,21.20
2022-11-28T10:13:07.235Z,21.21
2022-11-28T10:15:39.802Z,21.22
2022-11-28T10:18:18.830Z,21.24
2022-11-28T10:20:48.795Z,21.21
2022-11-28T10:23:22.978Z,21.26
2022-11-28T10:25:55.507Z,21.22
2022-11-28T10:28:25.965Z,21.29
2022-11-28T10:31:01.535Z,21.29
2022-11-28T10:33:39.285Z,21.28
2022-11-28T10:36:06.666Z,21.32
2022-11-28T10:38:34.885Z,21.33
2022-11-28T10:41:17.014Z,21.34
2022-11-28T10:44:01.855Z,21.34
2022-11-28T10:46:34.569Z,21.36
2022-11-28T10:49:26.755Z,21.28
2022-11-28T10:52:15.404Z,21.38
2022-11-28T10:54:56.394Z,21.38
2022-11-28T10:58:02.711Z,21.38
2022-11-28T11:00:29.723Z,21.40
2022-11-28T11:02:59.571Z,21.32
2022-11-28T11:05:30.844Z,21.40
2022-11-28T11:10:39.808Z,21.40
2022-11-28T11:13:17.107Z,21.41
2022-11-28T11:15:45.915Z,21.41
2022-11-28T11:18:24.831Z,21.42
2022-11-28T11:20:52.537Z,21.37
2022-11-28T11:23:22.244Z,21.42
2022-11-28T11:25:58.281Z,21.43
2022-11-28T11:28:36.307Z,21.45
2022-11-28T11:31:07.148Z,21.44
2022-11-28T11:33:36.780Z,21.45
2022-11-28T11:36:05.630Z,21.47
2022-11-28T11:38:38.057Z,21.46
2022-11-28T11:41:26.651Z,21.46
2022-11-28T11:43:53.267Z,21.45
2022-11-28T11:46:19.893Z,21.45
2022-11-28T11:48:50.817Z,21.44
2022-11-28T11:51:24.193Z,21.44
2022-11-28T11:54:19.907Z,21.45
2022-11-28T11:56:53.624Z,21.36
2022-11-28T11:59:47.848Z,21.46
2022-11-28T12:02:38.346Z,21.46
2022-11-28T12:05:13.789Z,21.45
2022-11-28T12:08:07.671Z,21.45
2022-11-28T12:10:39.827Z,21.44
2022-11-28T12:13:06.414Z,21.44
2022-11-28T12:16:14.292Z,21.43
2022-11-28T12:19:25.760Z,21.43
2022-11-28T12:22:04.549Z,21.43
2022-11-28T12:24:42.068Z,21.41
2022-11-28T12:27:14.547Z,21.36
2022-11-28T12:30:18.872Z,21.40
2022-11-28T12:33:03.723Z,21.40
2022-11-28T12:35:41.207Z,21.39
2022-11-28T12:38:31.282Z,21.38
2022-11-28T12:41:11.577Z,21.38
2022-11-28T12:43:55.762Z,21.38
2022-11-28T12:46:35.256Z,21.39
2022-11-28T12:49:14.331Z,21.38
2022-11-28T12:51:50.010Z,21.39
2022-11-28T12:54:38.116Z,21.41
2022-11-28T12:57:25.714Z,21.41
2022-11-28T13:00:08.479Z,21.43
2022-11-28T13:03:07.890Z,21.45
2022-11-28T13:05:50.032Z,21.45
2022-11-28T13:08:50.676Z,21.48
2022-11-28T13:11:53.980Z,21.48
2022-11-28T13:14:49.043Z,21.50
2022-11-28T13:17:44.350Z,21.49
2022-11-28T13:20:28.911Z,21.52
2022-11-28T13:23:26.789Z,21.45
2022-11-28T13:25:57.151Z,21.54
2022-11-28T13:28:35.903Z,21.55
2022-11-28T13:31:52.900Z,21.57
2022-11-28T13:34:21.908Z,21.58
2022-11-28T13:39:47.778Z,21.60
2022-11-28T13:44:53.345Z,21.62
2022-11-28T13:47:22.874Z,21.63
2022-11-28T13:52:32.344Z,21.43
2022-11-28T13:54:58.969Z,21.64
2022-11-28T13:57:38.402Z,21.65
2022-11-28T14:00:24.249Z,21.60
2022-11-28T14:02:59.889Z,21.65
2022-11-28T14:05:41.462Z,21.64
2022-11-28T14:08:09.028Z,21.59
2022-11-28T14:10:49.501Z,21.67
2022-11-28T14:13:47.503Z,21.67
2022-11-28T14:16:26.826Z,21.68
2022-11-28T14:18:57.762Z,21.69
2022-11-28T14:21:43.331Z,21.68
2022-11-28T14:24:34.427Z,21.69
2022-11-28T14:27:03.946Z,21.58
2022-11-28T14:29:39.468Z,21.64
2022-11-28T14:32:30.119Z,21.63
2022-11-28T14:34:59.762Z,21.69
2022-11-28T14:37:36.192Z,21.70
2022-11-28T14:40:04.522Z,21.70
2022-11-28T14:42:59.774Z,21.70
2022-11-28T14:45:45.428Z,21.71
2022-11-28T14:48:15.762Z,21.71
2022-11-28T14:50:46.818Z,21.69
2022-11-28T14:53:48.427Z,21.69
2022-11-28T14:56:15.403Z,21.69
2022-11-28T14:58:50.601Z,21.68
2022-11-28T15:01:33.382Z,21.68
2022-11-28T15:04:16.982Z,21.65
2022-11-28T15:06:44.718Z,21.68
2022-11-28T15:09:31.572Z,21.67
2022-11-28T15:12:23.244Z,21.68
2022-11-28T15:14:56.208Z,21.67
2022-11-28T15:17:28.485Z,21.68
2022-11-28T15:19:56.926Z,21.69
2022-11-28T15:22:38.070Z,21.69
2022-11-28T15:25:06.424Z,21.69
2022-11-28T15:27:33.341Z,21.68
2022-11-28T15:32:26.950Z,21.68
2022-11-28T15:35:09.363Z,21.65
2022-11-28T15:37:48.127Z,21.62
2022-11-28T15:40:29.388Z,21.70
2022-11-28T15:42:56.147Z,21.71
2022-11-28T15:45:31.030Z,21.71
2022-11-28T15:47:58.725Z,21.71
2022-11-28T15:50:28.461Z,21.70
2022-11-28T15:53:01.120Z,21.70
2022-11-28T15:55:34.290Z,21.72
2022-11-28T15:58:28.576Z,21.74
2022-11-28T16:01:26.174Z,21.74
2022-11-28T16:04:14.923Z,21.74
2022-11-28T16:06:46.227Z,21.75
2022-11-28T16:09:20.069Z,21.77
2022-11-28T16:11:49.521Z,21.76
2022-11-28T16:14:28.110Z,21.75
2022-11-28T16:16:56.743Z,21.69
2022-11-28T16:19:34.147Z,21.71
2022-11-28T16:22:05.283Z,21.76
2022-11-28T16:24:43.084Z,21.77
2022-11-28T16:27:48.709Z,21.79
2022-11-28T16:30:56.890Z,21.80
2022-11-28T16:35:25.756Z,21.82
2022-11-28T16:37:52.484Z,21.74
2022-11-28T16:40:23.869Z,21.78
2022-11-28T16:42:55.536Z,21.85
2022-11-28T16:45:26.848Z,21.71
2022-11-28T16:48:12.802Z,21.78
2022-11-28T16:51:01.319Z,21.88
2022-11-28T16:53:47.982Z,21.89
2022-11-28T16:58:42.115Z,21.89
2022-11-28T17:01:09.000Z,21.90
2022-11-28T17:03:50.479Z,21.80
2022-11-28T17:06:21.002Z,21.91
2022-11-28T17:08:48.094Z,21.78
2022-11-28T17:11:16.833Z,21.68
2022-11-28T17:16:05.984Z,21.93
2022-11-28T17:18:32.539Z,21.92
2022-11-28T17:20:59.863Z,21.94
2022-11-28T17:23:26.524Z,21.92
2022-11-28T17:28:09.160Z,21.68
2022-11-28T17:30:36.084Z,21.95
2022-11-28T17:33:05.021Z,21.90
2022-11-28T17:35:37.713Z,21.94
2022-11-28T17:38:04.309Z,21.96
2022-11-28T17:40:33.419Z,21.95
2022-11-28T17:43:01.213Z,21.95
2022-11-28T17:45:30.164Z,21.97
2022-11-28T17:49:17.702Z,21.96
2022-11-28T17:51:44.822Z,21.87
2022-11-28T17:54:16.249Z,21.99
2022-11-28T17:56:46.136Z,21.99
2022-11-28T17:59:13.567Z,21.87
2022-11-28T18:01:40.694Z,21.95
2022-11-28T18:04:07.785Z,21.93
2022-11-28T18:06:34.474Z,21.98
2022-11-28T18:09:05.955Z,21.91
2022-11-28T18:11:35.851Z,21.95
2022-11-28T18:14:02.738Z,21.94
2022-11-28T18:16:30.794Z,21.87
2022-11-28T18:19:00.562Z,21.92
2022-11-28T18:21:27.214Z,21.79
2022-11-28T18:23:54.499Z,21.91
2022-11-28T18:26:24.033Z,21.90
2022-11-28T18:28:51.685Z,21.88
2022-11-28T18:31:25.582Z,21.87
2022-11-28T18:33:56.247Z,21.88
2022-11-28T18:36:27.779Z,21.87
2022-11-28T18:39:01.547Z,21.78
2022-11-28T18:41:28.649Z,21.84
2022-11-28T18:43:59.928Z,21.83
2022-11-28T18:48:25.985Z,21.82
2022-11-28T18:50:52.698Z,21.82
2022-11-28T18:53:19.864Z,21.80
2022-11-28T18:55:46.527Z,21.82
2022-11-28T18:58:13.110Z,21.81
2022-11-28T19:00:39.991Z,21.81
2022-11-28T19:03:07.279Z,21.82
2022-11-28T19:05:38.956Z,21.82
2022-11-28T19:08:05.935Z,21.83
2022-11-28T19:10:37.031Z,21.82
2022-11-28T19:13:03.945Z,21.62
2022-11-28T19:15:30.580Z,21.83
2022-11-28T19:17:58.140Z,21.83
2022-11-28T19:20:24.706Z,21.82
2022-11-28T19:22:51.364Z,21.56
2022-11-28T19:25:18.071Z,21.76
2022-11-28T19:27:45.264Z,21.81
2022-11-28T19:30:13.277Z,21.72
2022-11-28T19:32:39.958Z,21.79
2022-11-28T19:35:07.213Z,21.76
2022-11-28T19:37:36.937Z,21.74
2022-11-28T19:40:05.607Z,21.74
2022-11-28T19:42:32.636Z,21.67
2022-11-28T19:44:59.420Z,21.66
2022-11-28T19:47:27.003Z,21.71
2022-11-28T19:49:53.571Z,21.67
2022-11-28T19:52:20.179Z,21.68
2022-11-28T19:54:48.329Z,21.69
2022-11-28T19:57:15.139Z,21.69
2022-11-28T19:59:42.129Z,21.68
2022-11-28T20:02:10.338Z,21.63
2022-11-28T20:04:38.175Z,21.67
2022-11-28T20:07:04.859Z,21.59
2022-11-28T20:09:31.506Z,21.63
2022-11-28T20:11:58.467Z,21.63
2022-11-28T20:14:25.777Z,21.53
2022-11-28T20:16:55.713Z,21.60
2022-11-28T20:19:23.158Z,21.59
2022-11-28T20:21:54.020Z,21.57
2022-11-28T20:24:20.824Z,21.56
2022-11-28T20:26:47.775Z,21.55
2022-11-28T20:29:16.651Z,21.42
2022-11-28T20:31:47.201Z,21.53
2022-11-28T20:34:18.116Z,21.52
2022-11-28T20:36:50.146Z,21.52
2022-11-28T20:39:16.898Z,21.50
2022-11-28T20:41:43.443Z,21.49
2022-11-28T20:44:10.511Z,21.46
2022-11-28T20:46:37.143Z,21.44
2022-11-28T20:49:06.561Z,21.47
2022-11-28T20:51:34.404Z,21.46
2022-11-28T20:54:01.996Z,21.45
2022-11-28T20:56:31.633Z,21.43
2022-11-28T20:59:00.930Z,21.43
2022-11-28T21:01:30.862Z,21.42
2022-11-28T21:03:58.404Z,21.41
2022-11-28T21:06:25.559Z,21.40
2022-11-28T21:08:52.291Z,21.39
2022-11-28T21:11:43.786Z,21.12
2022-11-28T21:14:08.424Z,21.38
2022-11-28T21:16:36.914Z,21.37
2022-11-28T21:19:07.537Z,21.36
2022-11-28T21:21:36.847Z,21.23
2022-11-28T21:24:12.774Z,21.29
2022-11-28T21:26:44.233Z,21.26
2022-11-28T21:29:14.727Z,21.33
2022-11-28T21:31:44.148Z,21.19
2022-11-28T21:34:17.585Z,21.31
2022-11-28T21:36:44.718Z,21.23
2022-11-28T21:39:20.046Z,21.02
2022-11-28T21:41:47.146Z,21.28
2022-11-28T21:44:13.893Z,21.28
2022-11-28T21:46:40.532Z,21.16
2022-11-28T21:49:07.371Z,21.26
2022-11-28T21:51:38.464Z,21.26
2022-11-28T21:54:05.963Z,21.25
2022-11-28T21:56:33.095Z,21.24
2022-11-28T21:58:59.761Z,21.21
2022-11-28T22:01:26.557Z,21.23
2022-11-28T22:03:59.011Z,21.22
2022-11-28T22:06:29.956Z,21.21
2022-11-28T22:08:57.222Z,21.18
2022-11-28T22:11:24.246Z,21.20
2022-11-28T22:13:52.691Z,21.10
2022-11-28T22:16:25.463Z,21.19
2022-11-28T22:18:54.922Z,21.21
2022-11-28T22:21:50.461Z,21.23
2022-11-28T22:24:08.941Z,21.24
2022-11-28T22:26:35.746Z,21.17
2022-11-28T22:29:04.051Z,21.28
2022-11-28T22:31:34.570Z,21.29
2022-11-28T22:34:01.278Z,21.32
2022-11-28T22:36:28.388Z,21.33
2022-11-28T22:38:57.214Z,20.79
2022-11-28T22:41:29.035Z,21.26
2022-11-28T22:44:00.491Z,21.39
2022-11-28T22:46:28.579Z,21.41
2022-11-28T22:48:55.479Z,21.41
2022-11-28T22:51:26.255Z,21.39
2022-11-28T22:53:59.213Z,21.43
2022-11-28T22:56:28.174Z,21.47
2022-11-28T22:58:55.047Z,21.49
2022-11-28T23:01:25.844Z,21.50
2022-11-28T23:03:53.927Z,21.51
2022-11-28T23:06:27.225Z,21.52
2022-11-28T23:08:55.802Z,21.54
2022-11-28T23:11:26.822Z,21.55
2022-11-28T23:13:54.053Z,21.57
2022-11-28T23:16:26.849Z,21.57
2022-11-28T23:18:59.602Z,21.57
2022-11-28T23:21:28.210Z,21.61
2022-11-28T23:23:55.152Z,21.62
2022-11-28T23:26:23.921Z,21.63
2022-11-28T23:29:11.578Z,21.63
2022-11-28T23:31:40.919Z,21.63
2022-11-28T23:34:09.090Z,21.63
2022-11-28T23:36:42.683Z,21.55
2022-11-28T23:39:11.843Z,21.64
2022-11-28T23:44:04.510Z,21.56
2022-11-28T23:46:34.515Z,21.57
2022-11-28T23:49:01.034Z,21.62
2022-11-28T23:51:27.756Z,21.62
2022-11-28T23:53:54.778Z,21.63
2022-11-28T23:56:27.515Z,21.62
2022-11-28T23:58:55.635Z,21.61
